createdAt,value
2023-02-25T00:03:11.554Z,7.62
2023-02-25T00:07:13.116Z,7.52
2023-02-25T00:11:16.382Z,7.50
2023-02-25T00:15:18.118Z,7.42
2023-02-25T00:19:19.624Z,7.39
2023-02-25T00:23:21.137Z,7.29
2023-02-25T00:27:24.186Z,7.23
2023-02-25T00:31:26.287Z,7.15
2023-02-25T00:35:27.970Z,7.08
2023-02-25T00:39:42.709Z,7.04
2023-02-25T00:43:49.289Z,7.01
2023-02-25T00:47:51.029Z,6.91
2023-02-25T00:51:52.647Z,6.96
2023-02-25T00:56:01.701Z,7.01
2023-02-25T01:00:10.134Z,7.08
2023-02-25T01:04:12.334Z,7.18
2023-02-25T01:08:13.945Z,7.16
2023-02-25T01:12:15.483Z,7.15
2023-02-25T01:16:21.408Z,7.09
2023-02-25T01:20:24.118Z,7.12
2023-02-25T01:24:32.170Z,7.21
2023-02-25T01:28:33.652Z,7.18
2023-02-25T01:32:35.664Z,7.15
2023-02-25T01:36:37.321Z,7.16
2023-02-25T01:40:38.927Z,7.15
2023-02-25T01:45:19.336Z,7.15
2023-02-25T01:49:32.310Z,7.08
2023-02-25T01:53:38.508Z,7.01
2023-02-25T01:57:40.260Z,6.91
2023-02-25T02:01:43.559Z,6.76
2023-02-25T02:05:59.805Z,6.65
2023-02-25T02:10:02.246Z,6.57
2023-02-25T02:14:06.078Z,6.50
2023-02-25T02:18:09.160Z,6.38
2023-02-25T02:22:35.748Z,6.20
2023-02-25T02:26:40.208Z,6.01
2023-02-25T02:31:20.022Z,5.95
2023-02-25T02:35:39.873Z,5.87
2023-02-25T02:39:54.952Z,5.80
2023-02-25T02:43:56.568Z,5.75
2023-02-25T02:48:01.840Z,5.69
2023-02-25T02:52:15.117Z,5.66
2023-02-25T02:56:20.731Z,5.63
2023-02-25T03:00:28.192Z,5.59
2023-02-25T03:04:35.960Z,5.52
2023-02-25T03:08:45.976Z,5.49
2023-02-25T03:12:48.122Z,5.47
2023-02-25T03:17:01.169Z,5.49
2023-02-25T03:21:11.811Z,5.49
2023-02-25T03:25:19.956Z,5.48
2023-02-25T03:29:24.194Z,5.49
2023-02-25T03:33:29.629Z,5.51
2023-02-25T03:37:35.590Z,5.52
2023-02-25T03:41:42.212Z,5.47
2023-02-25T03:45:45.329Z,5.52
2023-02-25T03:49:54.273Z,5.56
2023-02-25T03:53:56.286Z,5.65
2023-02-25T03:58:03.523Z,5.62
2023-02-25T04:02:05.655Z,5.74
2023-02-25T04:06:07.364Z,5.75
2023-02-25T04:10:12.179Z,5.77
2023-02-25T04:14:13.786Z,5.80
2023-02-25T04:18:15.555Z,5.83
2023-02-25T04:22:17.350Z,5.78
2023-02-25T04:26:19.050Z,5.81
2023-02-25T04:30:20.735Z,5.77
2023-02-25T04:34:22.649Z,5.73
2023-02-25T04:38:24.183Z,5.67
2023-02-25T04:42:25.785Z,5.69
2023-02-25T04:46:27.486Z,5.69
2023-02-25T04:50:29.049Z,5.74
2023-02-25T04:54:30.582Z,5.77
2023-02-25T04:58:33.737Z,5.84
2023-02-25T05:02:35.256Z,5.87
2023-02-25T05:06:36.867Z,5.90
2023-02-25T05:10:38.382Z,5.92
2023-02-25T05:14:39.989Z,5.88
2023-02-25T05:18:43.214Z,5.85
2023-02-25T05:22:44.819Z,5.87
2023-02-25T05:26:46.347Z,5.87
2023-02-25T05:30:48.049Z,5.87
2023-02-25T05:34:49.726Z,5.88
2023-02-25T05:38:54.846Z,5.85
2023-02-25T05:42:56.348Z,5.90
2023-02-25T05:46:57.999Z,5.90
2023-02-25T05:51:02.273Z,5.90
2023-02-25T05:55:04.635Z,5.92
2023-02-25T05:59:06.337Z,5.95
2023-02-25T06:03:07.912Z,6.01
2023-02-25T06:07:09.539Z,6.03
2023-02-25T06:11:14.289Z,6.06
2023-02-25T06:15:15.915Z,6.05
2023-02-25T06:19:17.461Z,6.05
2023-02-25T06:23:19.018Z,6.05
2023-02-25T06:27:20.522Z,6.03
2023-02-25T06:31:23.446Z,6.08
2023-02-25T06:35:25.271Z,6.10
2023-02-25T06:39:27.266Z,6.14
2023-02-25T06:43:28.839Z,6.17
2023-02-25T06:47:30.391Z,6.19
2023-02-25T06:51:32.146Z,6.21
2023-02-25T06:55:33.939Z,6.21
2023-02-25T06:59:35.798Z,6.24
2023-02-25T07:03:37.535Z,6.20
2023-02-25T07:07:39.093Z,6.20
2023-02-25T07:11:40.828Z,6.21
2023-02-25T07:15:42.570Z,6.24
2023-02-25T07:19:44.138Z,6.24
2023-02-25T07:23:46.535Z,6.27
2023-02-25T07:27:48.232Z,6.32
2023-02-25T07:31:49.893Z,6.32
2023-02-25T07:35:54.959Z,6.38
2023-02-25T07:39:59.690Z,6.40
2023-02-25T07:44:01.599Z,6.42
2023-02-25T07:48:03.248Z,6.46
2023-02-25T07:52:04.868Z,6.54
2023-02-25T07:56:07.683Z,6.57
2023-02-25T08:00:10.397Z,6.63
2023-02-25T08:04:14.628Z,6.72
2023-02-25T08:08:16.200Z,6.79
2023-02-25T08:12:17.936Z,6.89
2023-02-25T08:16:20.981Z,6.94
2023-02-25T08:20:24.378Z,7.00
2023-02-25T08:24:26.411Z,7.12
2023-02-25T08:28:34.328Z,7.15
2023-02-25T08:32:37.747Z,7.21
2023-02-25T08:36:39.595Z,7.29
2023-02-25T08:40:41.572Z,7.36
2023-02-25T08:44:43.135Z,7.37
2023-02-25T08:48:44.935Z,7.37
2023-02-25T08:52:46.830Z,7.34
2023-02-25T08:56:51.040Z,7.34
2023-02-25T09:00:55.087Z,7.41
2023-02-25T09:04:56.834Z,7.44
2023-02-25T09:08:58.808Z,7.47
2023-02-25T09:13:00.359Z,7.42
2023-02-25T09:17:07.683Z,7.42
2023-02-25T09:21:10.728Z,7.55
2023-02-25T09:25:13.796Z,7.63
2023-02-25T09:29:15.550Z,7.74
2023-02-25T09:33:17.157Z,7.79
2023-02-25T09:37:19.737Z,7.74
2023-02-25T09:41:39.599Z,7.81
2023-02-25T09:45:47.194Z,7.73
2023-02-25T09:50:00.167Z,7.69
2023-02-25T09:54:23.281Z,7.63
2023-02-25T09:58:27.497Z,7.42
2023-02-25T10:02:40.921Z,7.19
2023-02-25T10:06:50.305Z,7.08
2023-02-25T10:11:01.748Z,7.08
2023-02-25T10:15:34.383Z,7.07
2023-02-25T10:19:57.505Z,6.94
2023-02-25T10:24:30.175Z,6.94
2023-02-25T10:28:32.465Z,7.01
2023-02-25T10:32:39.618Z,7.11
2023-02-25T10:36:48.218Z,7.21
2023-02-25T10:40:50.004Z,7.26
2023-02-25T10:44:52.527Z,7.32
2023-02-25T10:48:58.214Z,7.36
2023-02-25T10:53:11.745Z,7.52
2023-02-25T10:57:16.973Z,7.60
2023-02-25T11:01:22.460Z,7.69
2023-02-25T11:05:40.725Z,7.67
2023-02-25T11:09:42.240Z,7.76
2023-02-25T11:13:44.544Z,7.74
2023-02-25T11:17:46.462Z,7.54
2023-02-25T11:21:48.510Z,7.52
2023-02-25T11:25:53.197Z,7.62
2023-02-25T11:30:02.661Z,7.70
2023-02-25T11:34:13.541Z,7.79
2023-02-25T11:38:36.144Z,7.82
2023-02-25T11:42:37.686Z,8.00
2023-02-25T11:46:39.347Z,8.18
2023-02-25T11:50:55.788Z,8.29
2023-02-25T11:55:12.638Z,8.47
2023-02-25T11:59:28.931Z,8.49
2023-02-25T12:04:01.316Z,8.55
2023-02-25T12:08:13.764Z,8.71
2023-02-25T12:12:48.089Z,8.71
2023-02-25T12:17:01.081Z,8.68
2023-02-25T12:21:02.652Z,8.54
2023-02-25T12:25:28.304Z,8.36
2023-02-25T12:29:41.072Z,8.36
2023-02-25T12:33:54.597Z,8.37
2023-02-25T12:38:18.100Z,8.36
2023-02-25T12:42:48.660Z,8.12
2023-02-25T12:47:17.575Z,8.10
2023-02-25T12:51:32.221Z,8.45
2023-02-25T12:56:07.827Z,8.82
2023-02-25T13:00:24.748Z,9.19
2023-02-25T13:04:46.905Z,9.40
2023-02-25T13:09:10.240Z,9.59
2023-02-25T13:13:39.483Z,9.55
2023-02-25T13:18:20.028Z,9.52
2023-02-25T13:22:43.601Z,9.20
2023-02-25T13:27:00.475Z,9.04
2023-02-25T13:31:02.869Z,8.93
2023-02-25T13:35:22.634Z,8.93
2023-02-25T13:39:53.192Z,8.96
2023-02-25T13:44:16.628Z,9.04
2023-02-25T13:48:50.118Z,9.10
2023-02-25T13:53:04.631Z,9.26
2023-02-25T13:57:25.114Z,9.24
2023-02-25T14:02:00.783Z,9.01
2023-02-25T14:06:13.893Z,8.78
2023-02-25T14:10:25.659Z,8.76
2023-02-25T14:14:43.002Z,8.60
2023-02-25T14:19:22.002Z,8.52
2023-02-25T14:23:29.737Z,8.47
2023-02-25T14:28:03.124Z,8.50
2023-02-25T14:32:14.032Z,8.68
2023-02-25T14:36:41.431Z,8.70
2023-02-25T14:40:47.348Z,8.57
2023-02-25T14:44:56.241Z,8.32
2023-02-25T14:49:11.882Z,8.09
2023-02-25T14:53:40.718Z,7.89
2023-02-25T14:58:11.606Z,7.73
2023-02-25T15:02:36.582Z,7.84
2023-02-25T15:06:56.958Z,8.27
2023-02-25T15:11:19.910Z,8.54
2023-02-25T15:15:27.755Z,8.64
2023-02-25T15:20:05.552Z,8.68
2023-02-25T15:24:25.814Z,8.65
2023-02-25T15:28:30.288Z,8.61
2023-02-25T15:32:53.064Z,8.31
2023-02-25T15:37:31.813Z,8.00
2023-02-25T15:41:38.377Z,7.58
2023-02-25T15:45:42.484Z,7.21
2023-02-25T15:49:48.797Z,7.05
2023-02-25T15:53:50.672Z,7.00
2023-02-25T15:57:52.254Z,6.89
2023-02-25T16:01:53.834Z,6.76
2023-02-25T16:06:01.229Z,6.65
2023-02-25T16:10:08.996Z,6.58
2023-02-25T16:14:31.470Z,6.61
2023-02-25T16:18:42.553Z,6.65
2023-02-25T16:22:46.723Z,6.65
2023-02-25T16:27:01.861Z,6.64
2023-02-25T16:31:42.067Z,6.61
2023-02-25T16:35:55.427Z,6.50
2023-02-25T16:40:01.816Z,6.46
2023-02-25T16:44:03.741Z,6.28
2023-02-25T16:48:22.813Z,6.28
2023-02-25T16:52:31.270Z,6.25
2023-02-25T16:56:33.201Z,6.24
2023-02-25T17:00:36.471Z,6.14
2023-02-25T17:04:38.236Z,6.16
2023-02-25T17:08:45.038Z,6.13
2023-02-25T17:12:47.660Z,6.14
2023-02-25T17:16:49.642Z,6.14
2023-02-25T17:20:59.196Z,6.11
2023-02-25T17:25:02.059Z,6.16
2023-02-25T17:29:10.889Z,6.17
2023-02-25T17:33:29.151Z,6.16
2023-02-25T17:37:32.428Z,6.10
2023-02-25T17:41:35.211Z,6.10
2023-02-25T17:45:45.895Z,5.92
2023-02-25T17:49:47.891Z,5.83
2023-02-25T17:53:57.858Z,5.70
2023-02-25T17:58:03.334Z,5.65
2023-02-25T18:02:33.161Z,5.49
2023-02-25T18:06:42.797Z,5.38
2023-02-25T18:10:51.087Z,5.30
2023-02-25T18:14:59.408Z,5.23
2023-02-25T18:19:01.588Z,5.22
2023-02-25T18:23:06.299Z,5.14
2023-02-25T18:27:29.376Z,5.05
2023-02-25T18:31:31.315Z,5.06
2023-02-25T18:35:33.170Z,4.97
2023-02-25T18:39:36.917Z,4.97
2023-02-25T18:43:41.920Z,4.90
2023-02-25T18:47:43.771Z,4.88
2023-02-25T18:51:46.769Z,4.77
2023-02-25T18:55:48.766Z,4.74
2023-02-25T18:59:51.602Z,4.68
2023-02-25T19:03:54.098Z,4.62
2023-02-25T19:07:56.216Z,4.59
2023-02-25T19:11:57.839Z,4.65
2023-02-25T19:15:59.415Z,4.50
2023-02-25T19:20:01.168Z,4.50
2023-02-25T19:24:02.790Z,4.44
2023-02-25T19:28:06.369Z,4.46
2023-02-25T19:32:08.018Z,4.42
2023-02-25T19:36:10.730Z,4.39
2023-02-25T19:40:14.964Z,4.42
2023-02-25T19:44:16.519Z,4.29
2023-02-25T19:48:18.160Z,4.28
2023-02-25T19:52:19.747Z,4.26
2023-02-25T19:56:21.328Z,4.17
2023-02-25T20:00:25.411Z,4.16
2023-02-25T20:04:27.078Z,4.10
2023-02-25T20:08:28.582Z,4.06
2023-02-25T20:12:30.177Z,4.00
2023-02-25T20:16:33.176Z,3.96
2023-02-25T20:20:34.709Z,3.95
2023-02-25T20:24:36.619Z,3.92
2023-02-25T20:28:38.727Z,3.89
2023-02-25T20:32:42.061Z,3.88
2023-02-25T20:37:03.884Z,3.86
2023-02-25T20:41:05.828Z,3.84
2023-02-25T20:45:08.445Z,3.84
2023-02-25T20:49:14.650Z,3.82
2023-02-25T20:53:17.215Z,3.81
2023-02-25T20:57:21.040Z,3.77
2023-02-25T21:01:22.669Z,3.80
2023-02-25T21:05:24.242Z,3.74
2023-02-25T21:09:25.955Z,3.64
2023-02-25T21:13:28.433Z,3.62
2023-02-25T21:17:30.030Z,3.54
2023-02-25T21:21:36.944Z,3.52
2023-02-25T21:25:38.537Z,3.52
2023-02-25T21:29:40.155Z,3.44
2023-02-25T21:33:42.530Z,3.37
2023-02-25T21:37:44.190Z,3.33
2023-02-25T21:41:46.078Z,3.30
2023-02-25T21:45:54.287Z,3.25
2023-02-25T21:49:55.938Z,3.25
2023-02-25T21:54:00.167Z,3.25
2023-02-25T21:58:01.827Z,3.17
2023-02-25T22:02:03.381Z,3.23
2023-02-25T22:06:05.085Z,3.17
2023-02-25T22:10:08.786Z,3.16
2023-02-25T22:14:10.719Z,3.16
2023-02-25T22:18:12.257Z,3.16
2023-02-25T22:22:15.076Z,3.17
2023-02-25T22:26:19.873Z,3.05
2023-02-25T22:30:21.557Z,3.05
2023-02-25T22:34:23.327Z,2.98
2023-02-25T22:38:27.866Z,2.98
2023-02-25T22:42:29.522Z,2.94
2023-02-25T22:46:35.923Z,2.89
2023-02-25T22:50:37.628Z,2.83
2023-02-25T22:54:39.274Z,2.81
2023-02-25T22:58:41.128Z,2.80
2023-02-25T23:02:43.388Z,2.73
2023-02-25T23:06:46.007Z,2.71
2023-02-25T23:10:48.002Z,2.68
2023-02-25T23:14:49.499Z,2.69
2023-02-25T23:18:51.630Z,2.66
2023-02-25T23:22:53.997Z,2.61
2023-02-25T23:27:01.031Z,2.59
2023-02-25T23:31:03.746Z,2.53
2023-02-25T23:35:05.652Z,2.51
2023-02-25T23:39:09.278Z,2.48
2023-02-25T23:43:10.834Z,2.53
2023-02-25T23:47:12.474Z,2.50
2023-02-25T23:51:15.225Z,2.55
2023-02-25T23:55:16.926Z,2.53
2023-02-25T23:59:21.870Z,2.48
